createdAt,value
2022-07-27T00:00:29.267Z,78.47
2022-07-27T00:10:31.285Z,79.25
2022-07-27T00:20:33.364Z,78.77
2022-07-27T00:30:35.403Z,78.51
2022-07-27T00:40:37.347Z,79.34
2022-07-27T00:50:42.610Z,78.76
2022-07-27T01:00:45.639Z,78.64
2022-07-27T01:10:48.607Z,78.89
2022-07-27T01:20:52.571Z,79.68
2022-07-27T01:30:55.780Z,79.17
2022-07-27T01:40:57.862Z,79.76
2022-07-27T01:50:59.843Z,80.47
2022-07-27T02:01:01.803Z,80.50
2022-07-27T02:11:22.446Z,80.52
2022-07-27T02:21:24.800Z,80.15
2022-07-27T02:31:26.851Z,79.85
2022-07-27T02:41:34.778Z,80.00
2022-07-27T02:51:36.974Z,80.02
2022-07-27T03:01:41.837Z,80.03
2022-07-27T03:11:43.852Z,80.05
2022-07-27T03:21:46.126Z,80.44
2022-07-27T03:31:48.134Z,80.30
2022-07-27T03:41:49.990Z,80.15
2022-07-27T03:51:51.918Z,79.80
2022-07-27T04:01:53.975Z,79.05
2022-07-27T04:11:55.863Z,78.68
2022-07-27T04:21:57.901Z,77.57
2022-07-27T04:32:00.031Z,77.13
2022-07-27T04:42:02.068Z,76.54
2022-07-27T04:52:04.308Z,75.51
2022-07-27T05:02:06.346Z,73.88
2022-07-27T05:12:08.189Z,70.26
2022-07-27T05:22:10.750Z,65.97
2022-07-27T05:32:12.841Z,60.53
2022-07-27T05:42:14.915Z,51.77
2022-07-27T05:52:17.234Z,40.57
2022-07-27T06:02:19.217Z,34.74
2022-07-27T06:12:21.179Z,30.21
2022-07-27T06:22:51.488Z,26.72
2022-07-27T06:32:54.029Z,22.74
2022-07-27T06:42:59.279Z,20.92
2022-07-27T06:53:01.260Z,18.83
2022-07-27T07:03:04.816Z,16.65
2022-07-27T07:13:08.353Z,15.46
2022-07-27T07:23:11.015Z,13.60
2022-07-27T07:33:13.683Z,12.41
2022-07-27T07:43:16.439Z,11.46
2022-07-27T07:53:18.380Z,10.35
2022-07-27T08:03:20.821Z,9.39
2022-07-27T08:13:22.983Z,8.65
2022-07-27T08:23:27.004Z,7.77
2022-07-27T08:33:28.990Z,7.26
2022-07-27T08:43:32.268Z,6.04
2022-07-27T08:53:52.249Z,5.47
2022-07-27T09:03:55.732Z,4.98
2022-07-27T09:14:03.817Z,4.63
2022-07-27T09:24:23.081Z,4.45
2022-07-27T09:34:31.972Z,4.05
2022-07-27T09:44:43.839Z,4.32
2022-07-27T09:54:47.973Z,4.66
2022-07-27T10:04:50.182Z,5.02
2022-07-27T10:14:53.042Z,7.41
2022-07-27T10:25:01.591Z,8.45
2022-07-27T10:35:04.133Z,10.60
2022-07-27T10:45:11.038Z,10.41
2022-07-27T10:55:35.596Z,13.32
2022-07-27T11:16:23.489Z,21.47
2022-07-27T11:26:29.333Z,24.40
2022-07-27T11:36:42.365Z,24.96
2022-07-27T11:46:45.725Z,25.46
2022-07-27T11:56:53.562Z,25.07
2022-07-27T12:07:04.955Z,26.84
2022-07-27T12:17:25.842Z,26.53
2022-07-27T12:27:29.123Z,28.26
2022-07-27T12:37:34.000Z,29.42
2022-07-27T12:47:41.861Z,29.97
2022-07-27T12:57:55.850Z,29.09
2022-07-27T13:08:00.042Z,29.77
2022-07-27T13:18:02.359Z,30.46
2022-07-27T13:28:04.495Z,31.88
2022-07-27T13:38:07.355Z,30.92
2022-07-27T13:48:09.263Z,31.76
2022-07-27T13:58:14.493Z,31.80
2022-07-27T14:08:18.854Z,31.92
2022-07-27T14:18:21.158Z,33.27
2022-07-27T14:28:25.133Z,33.51
2022-07-27T14:38:30.879Z,34.34
2022-07-27T14:49:04.119Z,36.19
2022-07-27T14:58:55.191Z,37.53
2022-07-27T15:08:57.312Z,37.87
2022-07-27T15:19:00.578Z,36.18
2022-07-27T15:29:02.593Z,36.52
2022-07-27T15:39:05.450Z,37.74
2022-07-27T15:49:07.946Z,38.59
2022-07-27T15:59:10.327Z,38.19
2022-07-27T16:09:14.122Z,40.63
2022-07-27T16:19:17.309Z,42.53
2022-07-27T16:29:19.780Z,44.02
2022-07-27T16:39:22.498Z,45.94
2022-07-27T16:49:36.238Z,44.27
2022-07-27T16:59:40.352Z,42.79
2022-07-27T17:09:42.567Z,42.42
2022-07-27T17:19:44.686Z,42.98
2022-07-27T17:29:46.841Z,45.96
2022-07-27T17:39:49.384Z,48.38
2022-07-27T17:49:51.601Z,53.12
2022-07-27T17:59:57.374Z,53.81
2022-07-27T18:10:00.074Z,55.80
2022-07-27T18:20:02.454Z,56.87
2022-07-27T18:30:06.059Z,58.14
2022-07-27T18:40:12.191Z,58.48
2022-07-27T18:50:20.462Z,58.69
2022-07-27T19:00:24.812Z,60.22
2022-07-27T19:10:27.496Z,60.37
2022-07-27T19:20:29.773Z,60.80
2022-07-27T19:30:32.179Z,62.06
2022-07-27T19:40:44.962Z,62.66
2022-07-27T19:50:47.849Z,63.50
2022-07-27T20:00:53.413Z,63.90
2022-07-27T20:10:56.384Z,64.04
2022-07-27T20:20:59.537Z,64.23
2022-07-27T20:31:02.361Z,63.14
2022-07-27T20:41:04.725Z,63.22
2022-07-27T20:51:06.868Z,63.35
2022-07-27T21:01:09.346Z,62.97
2022-07-27T21:11:11.396Z,62.78
2022-07-27T21:21:13.382Z,61.59
2022-07-27T21:31:15.428Z,61.91
2022-07-27T21:41:19.194Z,63.34
2022-07-27T21:51:21.692Z,63.97
2022-07-27T22:01:23.953Z,64.39
2022-07-27T22:11:26.088Z,64.33
2022-07-27T22:21:28.840Z,64.66
2022-07-27T22:31:30.788Z,64.89
2022-07-27T22:41:32.928Z,65.47
2022-07-27T22:51:48.707Z,65.26
2022-07-27T23:01:52.899Z,65.37
2022-07-27T23:11:55.835Z,65.47
2022-07-27T23:22:01.246Z,65.68
2022-07-27T23:32:05.226Z,66.00
2022-07-27T23:42:07.372Z,66.25
2022-07-27T23:52:09.491Z,66.00
